sensor_id;sensor_type;location;lat;lon;timestamp;temperature;humidity
9666;DHT22;4871;52.004;5.924;2023-07-08T00:00:00;22.5;47.3
9666;DHT22;4871;52.004;5.924;2023-07-08T00:01:00;22.5;47.6
9666;DHT22;4871;52.004;5.924;2023-07-08T00:02:00;22.5;47.2
9666;DHT22;4871;52.004;5.924;2023-07-08T00:03:00;22.5;47.5
9666;DHT22;4871;52.004;5.924;2023-07-08T00:04:00;22.5;47.4
9666;DHT22;4871;52.004;5.924;2023-07-08T00:05:00;22.5;47.6
9666;DHT22;4871;52.004;5.924;2023-07-08T00:06:00;22.5;47.6
9666;DHT22;4871;52.004;5.924;2023-07-08T00:07:00;22.5;47.5
9666;DHT22;4871;52.004;5.924;2023-07-08T00:08:00;22.4;47.6
9666;DHT22;4871;52.004;5.924;2023-07-08T00:09:00;22.4;47.4
9666;DHT22;4871;52.004;5.924;2023-07-08T00:10:00;22.3;47.4
9666;DHT22;4871;52.004;5.924;2023-07-08T00:11:00;22.3;48.0
9666;DHT22;4871;52.004;5.924;2023-07-08T00:12:00;22.3;47.8
9666;DHT22;4871;52.004;5.924;2023-07-08T00:13:00;22.3;47.8
9666;DHT22;4871;52.004;5.924;2023-07-08T00:14:00;22.3;48.0
9666;DHT22;4871;52.004;5.924;2023-07-08T00:15:00;22.3;47.8
9666;DHT22;4871;52.004;5.924;2023-07-08T00:16:00;22.2;47.9
9666;DHT22;4871;52.004;5.924;2023-07-08T00:17:00;22.3;47.9
9666;DHT22;4871;52.004;5.924;2023-07-08T00:18:00;22.3;47.9
9666;DHT22;4871;52.004;5.924;2023-07-08T00:19:00;22.3;48.0
9666;DHT22;4871;52.004;5.924;2023-07-08T00:20:00;22.3;47.9
9666;DHT22;4871;52.004;5.924;2023-07-08T00:21:00;22.3;47.9
9666;DHT22;4871;52.004;5.924;2023-07-08T00:22:01;22.2;47.7
9666;DHT22;4871;52.004;5.924;2023-07-08T00:23:01;22.2;48.0
9666;DHT22;4871;52.004;5.924;2023-07-08T00:24:01;22.2;47.9
9666;DHT22;4871;52.004;5.924;2023-07-08T00:25:00;22.2;48.0
9666;DHT22;4871;52.004;5.924;2023-07-08T00:26:00;22.2;48.1
9666;DHT22;4871;52.004;5.924;2023-07-08T00:27:00;22.2;47.9
9666;DHT22;4871;52.004;5.924;2023-07-08T00:28:00;22.2;48.3
9666;DHT22;4871;52.004;5.924;2023-07-08T00:29:00;22.1;48.0
9666;DHT22;4871;52.004;5.924;2023-07-08T00:30:01;22.1;48.2
9666;DHT22;4871;52.004;5.924;2023-07-08T00:31:00;22.1;48.2
9666;DHT22;4871;52.004;5.924;2023-07-08T00:32:00;22.1;48.3
9666;DHT22;4871;52.004;5.924;2023-07-08T00:33:00;22.1;48.3
9666;DHT22;4871;52.004;5.924;2023-07-08T00:34:03;22.1;48.5
9666;DHT22;4871;52.004;5.924;2023-07-08T00:35:00;22.1;48.3
9666;DHT22;4871;52.004;5.924;2023-07-08T00:36:00;22.0;48.5
9666;DHT22;4871;52.004;5.924;2023-07-08T00:37:00;22.0;48.2
9666;DHT22;4871;52.004;5.924;2023-07-08T00:38:01;22.0;48.3
9666;DHT22;4871;52.004;5.924;2023-07-08T00:39:00;22.0;48.3
9666;DHT22;4871;52.004;5.924;2023-07-08T00:40:00;22.0;48.2
9666;DHT22;4871;52.004;5.924;2023-07-08T00:41:06;22.0;48.5
9666;DHT22;4871;52.004;5.924;2023-07-08T00:42:01;22.0;48.7
9666;DHT22;4871;52.004;5.924;2023-07-08T00:43:02;22.0;48.3
9666;DHT22;4871;52.004;5.924;2023-07-08T00:44:00;22.0;48.4
9666;DHT22;4871;52.004;5.924;2023-07-08T00:45:00;21.9;48.5
9666;DHT22;4871;52.004;5.924;2023-07-08T00:46:09;21.9;48.5
9666;DHT22;4871;52.004;5.924;2023-07-08T00:47:02;22.0;48.3
9666;DHT22;4871;52.004;5.924;2023-07-08T00:48:07;21.9;48.4
9666;DHT22;4871;52.004;5.924;2023-07-08T00:49:21;21.9;48.4
9666;DHT22;4871;52.004;5.924;2023-07-08T00:50:03;21.9;48.4
9666;DHT22;4871;52.004;5.924;2023-07-08T00:51:00;21.9;48.5
9666;DHT22;4871;52.004;5.924;2023-07-08T00:52:31;21.9;48.5
9666;DHT22;4871;52.004;5.924;2023-07-08T00:53:31;21.9;48.5
9666;DHT22;4871;52.004;5.924;2023-07-08T00:54:00;21.9;48.5
9666;DHT22;4871;52.004;5.924;2023-07-08T00:55:03;21.9;48.4
9666;DHT22;4871;52.004;5.924;2023-07-08T00:56:02;21.8;48.6
9666;DHT22;4871;52.004;5.924;2023-07-08T00:57:01;21.8;48.4
9666;DHT22;4871;52.004;5.924;2023-07-08T00:58:00;21.8;48.6
9666;DHT22;4871;52.004;5.924;2023-07-08T00:59:03;21.8;48.5
9666;DHT22;4871;52.004;5.924;2023-07-08T01:00:02;21.8;48.6
9666;DHT22;4871;52.004;5.924;2023-07-08T01:01:01;21.8;48.7
9666;DHT22;4871;52.004;5.924;2023-07-08T01:02:03;21.7;48.5
9666;DHT22;4871;52.004;5.924;2023-07-08T01:03:01;21.7;48.9
9666;DHT22;4871;52.004;5.924;2023-07-08T01:04:04;21.7;48.6
9666;DHT22;4871;52.004;5.924;2023-07-08T01:05:04;21.7;48.7
9666;DHT22;4871;52.004;5.924;2023-07-08T01:06:00;21.7;48.8
9666;DHT22;4871;52.004;5.924;2023-07-08T01:07:00;21.7;48.5
9666;DHT22;4871;52.004;5.924;2023-07-08T01:08:02;21.7;48.8
9666;DHT22;4871;52.004;5.924;2023-07-08T01:09:03;21.7;48.8
9666;DHT22;4871;52.004;5.924;2023-07-08T01:10:02;21.7;48.7
9666;DHT22;4871;52.004;5.924;2023-07-08T01:11:03;21.7;48.7
9666;DHT22;4871;52.004;5.924;2023-07-08T01:12:02;21.6;48.8
9666;DHT22;4871;52.004;5.924;2023-07-08T01:13:04;21.6;48.9
9666;DHT22;4871;52.004;5.924;2023-07-08T01:14:01;21.6;48.9
9666;DHT22;4871;52.004;5.924;2023-07-08T01:15:03;21.6;49.0
9666;DHT22;4871;52.004;5.924;2023-07-08T01:16:00;21.6;49.2
9666;DHT22;4871;52.004;5.924;2023-07-08T01:17:00;21.6;48.8
9666;DHT22;4871;52.004;5.924;2023-07-08T01:18:00;21.5;49.1
9666;DHT22;4871;52.004;5.924;2023-07-08T01:19:01;21.5;48.8
9666;DHT22;4871;52.004;5.924;2023-07-08T01:20:01;21.5;49.1
9666;DHT22;4871;52.004;5.924;2023-07-08T01:21:02;21.5;49.2
9666;DHT22;4871;52.004;5.924;2023-07-08T01:22:00;21.5;48.9
9666;DHT22;4871;52.004;5.924;2023-07-08T01:23:00;21.4;49.1
9666;DHT22;4871;52.004;5.924;2023-07-08T01:24:03;21.4;48.9
9666;DHT22;4871;52.004;5.924;2023-07-08T01:25:03;21.4;49.2
9666;DHT22;4871;52.004;5.924;2023-07-08T01:26:00;21.4;49.2
9666;DHT22;4871;52.004;5.924;2023-07-08T01:27:01;21.4;49.1
9666;DHT22;4871;52.004;5.924;2023-07-08T01:28:00;21.4;49.1
9666;DHT22;4871;52.004;5.924;2023-07-08T01:29:01;21.4;49.2
9666;DHT22;4871;52.004;5.924;2023-07-08T01:30:01;21.4;49.2
9666;DHT22;4871;52.004;5.924;2023-07-08T01:31:00;21.4;49.2
9666;DHT22;4871;52.004;5.924;2023-07-08T01:32:02;21.4;48.9
9666;DHT22;4871;52.004;5.924;2023-07-08T01:33:05;21.3;49.3
9666;DHT22;4871;52.004;5.924;2023-07-08T01:34:00;21.3;49.4
9666;DHT22;4871;52.004;5.924;2023-07-08T01:35:01;21.3;49.6
9666;DHT22;4871;52.004;5.924;2023-07-08T01:36:00;21.3;49.1
9666;DHT22;4871;52.004;5.924;2023-07-08T01:37:01;21.4;49.1
9666;DHT22;4871;52.004;5.924;2023-07-08T01:38:03;21.3;49.3
9666;DHT22;4871;52.004;5.924;2023-07-08T01:39:00;21.2;49.5
9666;DHT22;4871;52.004;5.924;2023-07-08T01:40:25;21.2;49.5
9666;DHT22;4871;52.004;5.924;2023-07-08T01:41:00;21.2;49.5
9666;DHT22;4871;52.004;5.924;2023-07-08T01:42:00;21.2;49.7
9666;DHT22;4871;52.004;5.924;2023-07-08T01:43:01;21.2;49.2
9666;DHT22;4871;52.004;5.924;2023-07-08T01:44:00;21.2;49.4
9666;DHT22;4871;52.004;5.924;2023-07-08T01:45:00;21.1;49.4
9666;DHT22;4871;52.004;5.924;2023-07-08T01:46:01;21.1;49.7
9666;DHT22;4871;52.004;5.924;2023-07-08T01:47:04;21.1;49.6
9666;DHT22;4871;52.004;5.924;2023-07-08T01:48:03;21.1;49.8
9666;DHT22;4871;52.004;5.924;2023-07-08T01:49:01;21.1;49.6
9666;DHT22;4871;52.004;5.924;2023-07-08T01:50:00;21.1;49.5
9666;DHT22;4871;52.004;5.924;2023-07-08T01:51:02;21.1;49.5
9666;DHT22;4871;52.004;5.924;2023-07-08T01:52:01;21.1;49.5
9666;DHT22;4871;52.004;5.924;2023-07-08T01:53:02;21.1;49.9
9666;DHT22;4871;52.004;5.924;2023-07-08T01:54:00;21.0;49.8
9666;DHT22;4871;52.004;5.924;2023-07-08T01:55:00;21.0;49.7
9666;DHT22;4871;52.004;5.924;2023-07-08T01:56:00;21.0;50.1
9666;DHT22;4871;52.004;5.924;2023-07-08T01:57:01;20.9;49.9
9666;DHT22;4871;52.004;5.924;2023-07-08T01:58:00;20.9;50.1
9666;DHT22;4871;52.004;5.924;2023-07-08T01:59:00;20.9;50.1
9666;DHT22;4871;52.004;5.924;2023-07-08T02:00:00;20.9;50.2
9666;DHT22;4871;52.004;5.924;2023-07-08T02:01:00;20.9;50.2
9666;DHT22;4871;52.004;5.924;2023-07-08T02:02:00;20.9;50.2
9666;DHT22;4871;52.004;5.924;2023-07-08T02:03:00;20.8;50.1
9666;DHT22;4871;52.004;5.924;2023-07-08T02:04:00;20.8;50.5
9666;DHT22;4871;52.004;5.924;2023-07-08T02:05:00;20.9;50.2
9666;DHT22;4871;52.004;5.924;2023-07-08T02:06:00;20.8;50.5
9666;DHT22;4871;52.004;5.924;2023-07-08T02:07:00;20.8;50.4
9666;DHT22;4871;52.004;5.924;2023-07-08T02:08:00;20.8;50.4
9666;DHT22;4871;52.004;5.924;2023-07-08T02:09:00;20.8;50.1
9666;DHT22;4871;52.004;5.924;2023-07-08T02:10:00;20.8;50.1
9666;DHT22;4871;52.004;5.924;2023-07-08T02:11:00;20.8;50.5
9666;DHT22;4871;52.004;5.924;2023-07-08T02:12:00;20.8;50.7
9666;DHT22;4871;52.004;5.924;2023-07-08T02:13:00;20.8;50.2
9666;DHT22;4871;52.004;5.924;2023-07-08T02:14:00;20.8;50.6
9666;DHT22;4871;52.004;5.924;2023-07-08T02:15:01;20.8;50.5
9666;DHT22;4871;52.004;5.924;2023-07-08T02:16:00;20.8;50.4
9666;DHT22;4871;52.004;5.924;2023-07-08T02:17:00;20.8;50.5
9666;DHT22;4871;52.004;5.924;2023-07-08T02:18:00;20.8;50.3
9666;DHT22;4871;52.004;5.924;2023-07-08T02:19:00;20.8;50.5
9666;DHT22;4871;52.004;5.924;2023-07-08T02:20:00;20.7;50.6
9666;DHT22;4871;52.004;5.924;2023-07-08T02:21:00;20.8;50.6
9666;DHT22;4871;52.004;5.924;2023-07-08T02:22:00;20.7;50.3
9666;DHT22;4871;52.004;5.924;2023-07-08T02:23:00;20.7;50.4
9666;DHT22;4871;52.004;5.924;2023-07-08T02:24:00;20.7;50.6
9666;DHT22;4871;52.004;5.924;2023-07-08T02:25:00;20.7;50.6
9666;DHT22;4871;52.004;5.924;2023-07-08T02:26:00;20.7;50.5
9666;DHT22;4871;52.004;5.924;2023-07-08T02:27:00;20.7;50.6
9666;DHT22;4871;52.004;5.924;2023-07-08T02:28:00;20.7;50.6
9666;DHT22;4871;52.004;5.924;2023-07-08T02:29:00;20.7;50.6
9666;DHT22;4871;52.004;5.924;2023-07-08T02:30:00;20.7;50.8
9666;DHT22;4871;52.004;5.924;2023-07-08T02:31:02;20.7;50.7
9666;DHT22;4871;52.004;5.924;2023-07-08T02:32:00;20.7;50.8
9666;DHT22;4871;52.004;5.924;2023-07-08T02:33:00;20.7;50.5
9666;DHT22;4871;52.004;5.924;2023-07-08T02:34:02;20.6;50.8
9666;DHT22;4871;52.004;5.924;2023-07-08T02:35:00;20.6;50.6
9666;DHT22;4871;52.004;5.924;2023-07-08T02:36:01;20.6;50.7
9666;DHT22;4871;52.004;5.924;2023-07-08T02:37:00;20.6;50.3
9666;DHT22;4871;52.004;5.924;2023-07-08T02:38:00;20.6;50.4
9666;DHT22;4871;52.004;5.924;2023-07-08T02:39:00;20.5;51.0
9666;DHT22;4871;52.004;5.924;2023-07-08T02:40:00;20.6;51.0
9666;DHT22;4871;52.004;5.924;2023-07-08T02:41:00;20.6;51.0
9666;DHT22;4871;52.004;5.924;2023-07-08T02:42:01;20.6;50.6
9666;DHT22;4871;52.004;5.924;2023-07-08T02:43:00;20.6;50.8
9666;DHT22;4871;52.004;5.924;2023-07-08T02:44:00;20.6;51.0
9666;DHT22;4871;52.004;5.924;2023-07-08T02:45:00;20.6;50.8
9666;DHT22;4871;52.004;5.924;2023-07-08T02:46:00;20.5;50.8
9666;DHT22;4871;52.004;5.924;2023-07-08T02:47:00;20.6;50.9
9666;DHT22;4871;52.004;5.924;2023-07-08T02:48:00;20.6;51.0
9666;DHT22;4871;52.004;5.924;2023-07-08T02:49:00;20.5;51.1
9666;DHT22;4871;52.004;5.924;2023-07-08T02:50:00;20.5;50.8
9666;DHT22;4871;52.004;5.924;2023-07-08T02:51:01;20.5;50.9
9666;DHT22;4871;52.004;5.924;2023-07-08T02:52:00;20.5;50.8
9666;DHT22;4871;52.004;5.924;2023-07-08T02:53:00;20.5;51.0
9666;DHT22;4871;52.004;5.924;2023-07-08T02:54:00;20.5;50.9
9666;DHT22;4871;52.004;5.924;2023-07-08T02:55:00;20.5;51.0
9666;DHT22;4871;52.004;5.924;2023-07-08T02:56:00;20.5;51.0
9666;DHT22;4871;52.004;5.924;2023-07-08T02:57:00;20.5;51.0
9666;DHT22;4871;52.004;5.924;2023-07-08T02:58:00;20.5;51.0
9666;DHT22;4871;52.004;5.924;2023-07-08T02:59:00;20.5;50.8
9666;DHT22;4871;52.004;5.924;2023-07-08T03:00:00;20.4;51.1
9666;DHT22;4871;52.004;5.924;2023-07-08T03:01:00;20.4;51.0
9666;DHT22;4871;52.004;5.924;2023-07-08T03:02:00;20.4;51.3
9666;DHT22;4871;52.004;5.924;2023-07-08T03:03:00;20.4;51.1
9666;DHT22;4871;52.004;5.924;2023-07-08T03:04:00;20.4;51.1
9666;DHT22;4871;52.004;5.924;2023-07-08T03:05:01;20.4;51.3
9666;DHT22;4871;52.004;5.924;2023-07-08T03:06:02;20.4;51.2
9666;DHT22;4871;52.004;5.924;2023-07-08T03:07:00;20.4;51.3
9666;DHT22;4871;52.004;5.924;2023-07-08T03:08:00;20.3;51.4
9666;DHT22;4871;52.004;5.924;2023-07-08T03:09:00;20.4;51.1
9666;DHT22;4871;52.004;5.924;2023-07-08T03:10:00;20.3;51.2
9666;DHT22;4871;52.004;5.924;2023-07-08T03:11:02;20.3;51.3
9666;DHT22;4871;52.004;5.924;2023-07-08T03:12:00;20.3;51.2
9666;DHT22;4871;52.004;5.924;2023-07-08T03:13:00;20.3;51.0
9666;DHT22;4871;52.004;5.924;2023-07-08T03:14:00;20.3;51.2
9666;DHT22;4871;52.004;5.924;2023-07-08T03:15:00;20.3;51.4
9666;DHT22;4871;52.004;5.924;2023-07-08T03:16:03;20.3;51.2
9666;DHT22;4871;52.004;5.924;2023-07-08T03:17:00;20.3;51.2
9666;DHT22;4871;52.004;5.924;2023-07-08T03:18:00;20.3;51.3
9666;DHT22;4871;52.004;5.924;2023-07-08T03:19:00;20.3;51.4
9666;DHT22;4871;52.004;5.924;2023-07-08T03:20:00;20.3;51.4
9666;DHT22;4871;52.004;5.924;2023-07-08T03:21:00;20.2;51.4
9666;DHT22;4871;52.004;5.924;2023-07-08T03:22:03;20.2;51.5
9666;DHT22;4871;52.004;5.924;2023-07-08T03:23:00;20.2;51.6
9666;DHT22;4871;52.004;5.924;2023-07-08T03:24:00;20.2;51.5
9666;DHT22;4871;52.004;5.924;2023-07-08T03:25:00;20.2;51.5
9666;DHT22;4871;52.004;5.924;2023-07-08T03:26:00;20.2;51.5
9666;DHT22;4871;52.004;5.924;2023-07-08T03:27:04;20.2;51.4
9666;DHT22;4871;52.004;5.924;2023-07-08T03:28:00;20.2;51.4
9666;DHT22;4871;52.004;5.924;2023-07-08T03:29:00;20.2;51.4
9666;DHT22;4871;52.004;5.924;2023-07-08T03:30:00;20.1;51.6
9666;DHT22;4871;52.004;5.924;2023-07-08T03:31:00;20.1;51.5
9666;DHT22;4871;52.004;5.924;2023-07-08T03:32:00;20.1;51.4
9666;DHT22;4871;52.004;5.924;2023-07-08T03:33:00;20.1;51.2
9666;DHT22;4871;52.004;5.924;2023-07-08T03:34:00;20.1;51.5
9666;DHT22;4871;52.004;5.924;2023-07-08T03:35:01;20.1;51.5
9666;DHT22;4871;52.004;5.924;2023-07-08T03:36:00;20.2;51.5
9666;DHT22;4871;52.004;5.924;2023-07-08T03:37:00;20.1;51.6
9666;DHT22;4871;52.004;5.924;2023-07-08T03:38:00;20.1;51.6
9666;DHT22;4871;52.004;5.924;2023-07-08T03:39:01;20.1;51.5
9666;DHT22;4871;52.004;5.924;2023-07-08T03:40:00;20.1;51.4
9666;DHT22;4871;52.004;5.924;2023-07-08T03:41:00;20.1;51.6
9666;DHT22;4871;52.004;5.924;2023-07-08T03:42:00;20.1;51.4
9666;DHT22;4871;52.004;5.924;2023-07-08T03:43:00;20.1;51.6
9666;DHT22;4871;52.004;5.924;2023-07-08T03:44:00;20.1;51.3
9666;DHT22;4871;52.004;5.924;2023-07-08T03:45:00;20.1;51.5
9666;DHT22;4871;52.004;5.924;2023-07-08T03:46:00;20.0;51.8
9666;DHT22;4871;52.004;5.924;2023-07-08T03:47:00;20.0;51.7
9666;DHT22;4871;52.004;5.924;2023-07-08T03:48:00;20.0;51.7
9666;DHT22;4871;52.004;5.924;2023-07-08T03:49:00;20.0;51.6
9666;DHT22;4871;52.004;5.924;2023-07-08T03:50:00;20.0;51.7
9666;DHT22;4871;52.004;5.924;2023-07-08T03:51:00;20.1;51.7
9666;DHT22;4871;52.004;5.924;2023-07-08T03:52:00;20.0;51.4
9666;DHT22;4871;52.004;5.924;2023-07-08T03:53:00;20.0;51.5
9666;DHT22;4871;52.004;5.924;2023-07-08T03:54:00;20.0;51.6
9666;DHT22;4871;52.004;5.924;2023-07-08T03:55:00;20.0;51.7
9666;DHT22;4871;52.004;5.924;2023-07-08T03:56:00;20.0;51.6
9666;DHT22;4871;52.004;5.924;2023-07-08T03:57:00;20.0;51.6
9666;DHT22;4871;52.004;5.924;2023-07-08T03:58:00;20.0;51.6
9666;DHT22;4871;52.004;5.924;2023-07-08T03:59:00;20.0;51.7
9666;DHT22;4871;52.004;5.924;2023-07-08T04:00:00;20.0;51.8
9666;DHT22;4871;52.004;5.924;2023-07-08T04:01:00;20.0;51.7
9666;DHT22;4871;52.004;5.924;2023-07-08T04:02:00;20.0;51.8
9666;DHT22;4871;52.004;5.924;2023-07-08T04:03:00;19.9;51.7
9666;DHT22;4871;52.004;5.924;2023-07-08T04:04:00;19.9;51.7
9666;DHT22;4871;52.004;5.924;2023-07-08T04:05:00;19.9;51.7
9666;DHT22;4871;52.004;5.924;2023-07-08T04:06:00;20.0;51.8
9666;DHT22;4871;52.004;5.924;2023-07-08T04:07:00;19.9;51.8
9666;DHT22;4871;52.004;5.924;2023-07-08T04:08:00;19.9;51.8
9666;DHT22;4871;52.004;5.924;2023-07-08T04:09:00;19.9;51.8
9666;DHT22;4871;52.004;5.924;2023-07-08T04:10:00;19.9;51.6
9666;DHT22;4871;52.004;5.924;2023-07-08T04:11:00;19.9;51.7
9666;DHT22;4871;52.004;5.924;2023-07-08T04:12:00;19.9;51.8
9666;DHT22;4871;52.004;5.924;2023-07-08T04:13:00;19.9;51.9
9666;DHT22;4871;52.004;5.924;2023-07-08T04:14:00;19.9;52.1
9666;DHT22;4871;52.004;5.924;2023-07-08T04:15:00;19.9;52.0
9666;DHT22;4871;52.004;5.924;2023-07-08T04:16:02;19.9;52.0
9666;DHT22;4871;52.004;5.924;2023-07-08T04:17:00;19.9;51.8
9666;DHT22;4871;52.004;5.924;2023-07-08T04:18:00;19.9;52.0
9666;DHT22;4871;52.004;5.924;2023-07-08T04:19:00;19.9;51.9
9666;DHT22;4871;52.004;5.924;2023-07-08T04:20:04;19.9;52.0
9666;DHT22;4871;52.004;5.924;2023-07-08T04:21:00;19.9;51.9
9666;DHT22;4871;52.004;5.924;2023-07-08T04:22:00;19.9;51.7
9666;DHT22;4871;52.004;5.924;2023-07-08T04:23:00;19.9;51.8
9666;DHT22;4871;52.004;5.924;2023-07-08T04:24:00;19.9;51.9
9666;DHT22;4871;52.004;5.924;2023-07-08T04:25:00;19.9;52.0
9666;DHT22;4871;52.004;5.924;2023-07-08T04:26:00;19.9;51.8
9666;DHT22;4871;52.004;5.924;2023-07-08T04:27:00;19.8;51.9
9666;DHT22;4871;52.004;5.924;2023-07-08T04:28:00;19.9;52.0
9666;DHT22;4871;52.004;5.924;2023-07-08T04:29:00;19.8;52.0
9666;DHT22;4871;52.004;5.924;2023-07-08T04:30:00;19.8;52.0
9666;DHT22;4871;52.004;5.924;2023-07-08T04:31:01;19.8;51.8
9666;DHT22;4871;52.004;5.924;2023-07-08T04:32:00;19.8;51.9
9666;DHT22;4871;52.004;5.924;2023-07-08T04:33:00;19.8;51.9
9666;DHT22;4871;52.004;5.924;2023-07-08T04:34:00;19.8;52.1
9666;DHT22;4871;52.004;5.924;2023-07-08T04:35:00;19.9;52.0
9666;DHT22;4871;52.004;5.924;2023-07-08T04:36:00;19.8;52.0
9666;DHT22;4871;52.004;5.924;2023-07-08T04:37:01;19.9;52.0
9666;DHT22;4871;52.004;5.924;2023-07-08T04:38:00;19.9;52.0
9666;DHT22;4871;52.004;5.924;2023-07-08T04:39:00;19.8;52.0
9666;DHT22;4871;52.004;5.924;2023-07-08T04:40:00;19.8;52.0
9666;DHT22;4871;52.004;5.924;2023-07-08T04:41:00;19.9;52.0
9666;DHT22;4871;52.004;5.924;2023-07-08T04:42:00;19.9;51.9
9666;DHT22;4871;52.004;5.924;2023-07-08T04:43:00;19.9;51.9
9666;DHT22;4871;52.004;5.924;2023-07-08T04:44:02;19.9;51.8
9666;DHT22;4871;52.004;5.924;2023-07-08T04:45:00;19.9;51.8
9666;DHT22;4871;52.004;5.924;2023-07-08T04:46:00;19.9;51.7
9666;DHT22;4871;52.004;5.924;2023-07-08T04:47:00;19.9;51.8
9666;DHT22;4871;52.004;5.924;2023-07-08T04:48:00;19.9;51.9
9666;DHT22;4871;52.004;5.924;2023-07-08T04:49:00;19.9;51.9
9666;DHT22;4871;52.004;5.924;2023-07-08T04:50:00;19.9;51.8
9666;DHT22;4871;52.004;5.924;2023-07-08T04:51:00;19.9;51.7
9666;DHT22;4871;52.004;5.924;2023-07-08T04:52:02;19.9;51.8
9666;DHT22;4871;52.004;5.924;2023-07-08T04:53:00;19.9;51.6
9666;DHT22;4871;52.004;5.924;2023-07-08T04:54:00;20.0;51.7
9666;DHT22;4871;52.004;5.924;2023-07-08T04:55:00;20.0;51.5
9666;DHT22;4871;52.004;5.924;2023-07-08T04:56:00;20.0;51.6
9666;DHT22;4871;52.004;5.924;2023-07-08T04:57:00;20.0;51.5
9666;DHT22;4871;52.004;5.924;2023-07-08T04:58:02;20.0;51.6
9666;DHT22;4871;52.004;5.924;2023-07-08T04:59:01;20.0;51.5
9666;DHT22;4871;52.004;5.924;2023-07-08T05:00:00;20.0;51.8
9666;DHT22;4871;52.004;5.924;2023-07-08T05:01:00;19.9;51.7
9666;DHT22;4871;52.004;5.924;2023-07-08T05:02:00;19.9;51.8
9666;DHT22;4871;52.004;5.924;2023-07-08T05:03:00;20.0;51.7
9666;DHT22;4871;52.004;5.924;2023-07-08T05:04:00;20.0;51.8
9666;DHT22;4871;52.004;5.924;2023-07-08T05:05:00;20.0;51.6
9666;DHT22;4871;52.004;5.924;2023-07-08T05:06:00;20.0;51.7
9666;DHT22;4871;52.004;5.924;2023-07-08T05:07:00;20.0;51.9
9666;DHT22;4871;52.004;5.924;2023-07-08T05:08:00;20.0;51.7
9666;DHT22;4871;52.004;5.924;2023-07-08T05:09:01;20.0;51.9
9666;DHT22;4871;52.004;5.924;2023-07-08T05:10:00;20.0;51.9
9666;DHT22;4871;52.004;5.924;2023-07-08T05:11:00;20.0;51.8
9666;DHT22;4871;52.004;5.924;2023-07-08T05:12:00;20.0;51.9
9666;DHT22;4871;52.004;5.924;2023-07-08T05:13:00;20.0;51.7
9666;DHT22;4871;52.004;5.924;2023-07-08T05:14:00;20.0;51.9
9666;DHT22;4871;52.004;5.924;2023-07-08T05:15:00;20.0;51.9
9666;DHT22;4871;52.004;5.924;2023-07-08T05:16:00;20.0;51.8
9666;DHT22;4871;52.004;5.924;2023-07-08T05:17:00;20.0;51.9
9666;DHT22;4871;52.004;5.924;2023-07-08T05:18:00;20.0;51.8
9666;DHT22;4871;52.004;5.924;2023-07-08T05:19:00;20.0;51.8
9666;DHT22;4871;52.004;5.924;2023-07-08T05:20:00;20.0;51.7
9666;DHT22;4871;52.004;5.924;2023-07-08T05:21:01;20.0;51.8
9666;DHT22;4871;52.004;5.924;2023-07-08T05:22:00;20.0;51.7
9666;DHT22;4871;52.004;5.924;2023-07-08T05:23:01;20.1;51.6
9666;DHT22;4871;52.004;5.924;2023-07-08T05:24:00;20.1;51.6
9666;DHT22;4871;52.004;5.924;2023-07-08T05:25:00;20.1;51.8
9666;DHT22;4871;52.004;5.924;2023-07-08T05:26:01;20.1;51.9
9666;DHT22;4871;52.004;5.924;2023-07-08T05:27:00;20.1;51.7
9666;DHT22;4871;52.004;5.924;2023-07-08T05:28:00;20.2;52.1
9666;DHT22;4871;52.004;5.924;2023-07-08T05:29:00;20.2;51.8
9666;DHT22;4871;52.004;5.924;2023-07-08T05:30:00;20.3;51.5
9666;DHT22;4871;52.004;5.924;2023-07-08T05:31:00;20.3;51.9
9666;DHT22;4871;52.004;5.924;2023-07-08T05:32:00;20.3;51.5
9666;DHT22;4871;52.004;5.924;2023-07-08T05:33:00;20.4;51.3
9666;DHT22;4871;52.004;5.924;2023-07-08T05:34:00;20.4;51.7
9666;DHT22;4871;52.004;5.924;2023-07-08T05:35:00;20.4;51.5
9666;DHT22;4871;52.004;5.924;2023-07-08T05:36:00;20.4;51.4
9666;DHT22;4871;52.004;5.924;2023-07-08T05:37:00;20.5;51.6
9666;DHT22;4871;52.004;5.924;2023-07-08T05:38:00;20.5;51.1
9666;DHT22;4871;52.004;5.924;2023-07-08T05:39:00;20.6;52.2
9666;DHT22;4871;52.004;5.924;2023-07-08T05:40:03;20.6;51.7
9666;DHT22;4871;52.004;5.924;2023-07-08T05:41:00;20.6;52.4
9666;DHT22;4871;52.004;5.924;2023-07-08T05:42:00;20.6;51.5
9666;DHT22;4871;52.004;5.924;2023-07-08T05:43:00;20.7;51.7
9666;DHT22;4871;52.004;5.924;2023-07-08T05:44:00;20.6;51.3
9666;DHT22;4871;52.004;5.924;2023-07-08T05:45:00;20.7;51.7
9666;DHT22;4871;52.004;5.924;2023-07-08T05:46:01;20.8;51.8
9666;DHT22;4871;52.004;5.924;2023-07-08T05:47:00;20.9;51.3
9666;DHT22;4871;52.004;5.924;2023-07-08T05:48:00;21.0;51.4
9666;DHT22;4871;52.004;5.924;2023-07-08T05:49:00;21.1;51.2
9666;DHT22;4871;52.004;5.924;2023-07-08T05:50:00;21.2;51.7
9666;DHT22;4871;52.004;5.924;2023-07-08T05:51:00;21.2;50.3
9666;DHT22;4871;52.004;5.924;2023-07-08T05:52:06;21.3;51.3
9666;DHT22;4871;52.004;5.924;2023-07-08T05:53:00;21.4;50.9
9666;DHT22;4871;52.004;5.924;2023-07-08T05:54:00;21.5;50.0
9666;DHT22;4871;52.004;5.924;2023-07-08T05:55:00;21.5;49.9
9666;DHT22;4871;52.004;5.924;2023-07-08T05:56:02;21.6;50.0
9666;DHT22;4871;52.004;5.924;2023-07-08T05:57:00;21.7;49.7
9666;DHT22;4871;52.004;5.924;2023-07-08T05:58:00;21.8;49.4
9666;DHT22;4871;52.004;5.924;2023-07-08T05:59:00;21.9;49.7
9666;DHT22;4871;52.004;5.924;2023-07-08T06:00:00;21.9;49.7
9666;DHT22;4871;52.004;5.924;2023-07-08T06:01:00;22.0;49.2
9666;DHT22;4871;52.004;5.924;2023-07-08T06:02:00;22.1;49.6
9666;DHT22;4871;52.004;5.924;2023-07-08T06:03:00;22.1;48.8
9666;DHT22;4871;52.004;5.924;2023-07-08T06:04:00;22.2;49.2
9666;DHT22;4871;52.004;5.924;2023-07-08T06:05:00;22.3;49.3
9666;DHT22;4871;52.004;5.924;2023-07-08T06:06:02;22.3;48.6
9666;DHT22;4871;52.004;5.924;2023-07-08T06:07:00;22.4;48.5
9666;DHT22;4871;52.004;5.924;2023-07-08T06:08:00;22.5;48.6
9666;DHT22;4871;52.004;5.924;2023-07-08T06:09:00;22.6;48.2
9666;DHT22;4871;52.004;5.924;2023-07-08T06:10:00;22.6;47.9
9666;DHT22;4871;52.004;5.924;2023-07-08T06:11:00;22.7;48.1
9666;DHT22;4871;52.004;5.924;2023-07-08T06:12:00;22.8;48.1
9666;DHT22;4871;52.004;5.924;2023-07-08T06:13:00;22.9;48.0
9666;DHT22;4871;52.004;5.924;2023-07-08T06:14:00;22.9;48.3
9666;DHT22;4871;52.004;5.924;2023-07-08T06:15:01;23.0;47.4
9666;DHT22;4871;52.004;5.924;2023-07-08T06:16:00;23.1;48.1
9666;DHT22;4871;52.004;5.924;2023-07-08T06:17:00;23.2;48.0
9666;DHT22;4871;52.004;5.924;2023-07-08T06:18:02;23.2;47.5
9666;DHT22;4871;52.004;5.924;2023-07-08T06:19:00;23.2;47.2
9666;DHT22;4871;52.004;5.924;2023-07-08T06:20:02;23.3;47.0
9666;DHT22;4871;52.004;5.924;2023-07-08T06:21:01;23.4;46.8
9666;DHT22;4871;52.004;5.924;2023-07-08T06:22:00;23.4;47.2
9666;DHT22;4871;52.004;5.924;2023-07-08T06:23:00;23.5;46.9
9666;DHT22;4871;52.004;5.924;2023-07-08T06:24:00;23.6;46.6
9666;DHT22;4871;52.004;5.924;2023-07-08T06:25:00;23.6;46.6
9666;DHT22;4871;52.004;5.924;2023-07-08T06:26:00;23.7;46.5
9666;DHT22;4871;52.004;5.924;2023-07-08T06:27:00;23.8;46.4
9666;DHT22;4871;52.004;5.924;2023-07-08T06:28:00;23.8;46.7
9666;DHT22;4871;52.004;5.924;2023-07-08T06:29:00;23.8;46.1
9666;DHT22;4871;52.004;5.924;2023-07-08T06:30:00;23.9;46.1
9666;DHT22;4871;52.004;5.924;2023-07-08T06:31:00;24.0;46.1
9666;DHT22;4871;52.004;5.924;2023-07-08T06:32:00;24.0;46.2
9666;DHT22;4871;52.004;5.924;2023-07-08T06:33:00;24.1;46.5
9666;DHT22;4871;52.004;5.924;2023-07-08T06:34:00;24.2;45.8
9666;DHT22;4871;52.004;5.924;2023-07-08T06:35:00;24.2;45.5
9666;DHT22;4871;52.004;5.924;2023-07-08T06:36:00;24.2;45.6
9666;DHT22;4871;52.004;5.924;2023-07-08T06:37:00;24.3;45.6
9666;DHT22;4871;52.004;5.924;2023-07-08T06:38:00;24.4;45.8
9666;DHT22;4871;52.004;5.924;2023-07-08T06:39:00;24.4;45.3
9666;DHT22;4871;52.004;5.924;2023-07-08T06:40:00;24.5;45.4
9666;DHT22;4871;52.004;5.924;2023-07-08T06:41:00;24.5;45.8
9666;DHT22;4871;52.004;5.924;2023-07-08T06:42:00;24.6;45.5
9666;DHT22;4871;52.004;5.924;2023-07-08T06:43:02;24.7;45.2
9666;DHT22;4871;52.004;5.924;2023-07-08T06:44:00;24.7;45.4